sensor_id;sensor_type;location;lat;lon;timestamp;pressure;altitude;pressure_sealevel;temperature;humidity
80976;BME280;70437;49.466;11.002;2024-02-04T00:02:00;99013.97;;;8.32;100.00
80976;BME280;70437;49.466;11.002;2024-02-04T00:04:30;99011.91;;;8.34;100.00
80976;BME280;70437;49.466;11.002;2024-02-04T00:07:03;99003.19;;;8.26;100.00
80976;BME280;70437;49.466;11.002;2024-02-04T00:09:33;99012.59;;;8.37;100.00
80976;BME280;70437;49.466;11.002;2024-02-04T00:12:04;99023.72;;;8.25;100.00
80976;BME280;70437;49.466;11.002;2024-02-04T00:14:36;99029.72;;;8.27;100.00
80976;BME280;70437;49.466;11.002;2024-02-04T00:17:06;99023.34;;;8.58;100.00
80976;BME280;70437;49.466;11.002;2024-02-04T00:19:36;99034.94;;;8.50;100.00
80976;BME280;70437;49.466;11.002;2024-02-04T00:22:05;99029.34;;;8.30;100.00
80976;BME280;70437;49.466;11.002;2024-02-04T00:24:35;99019.41;;;8.39;100.00
80976;BME280;70437;49.466;11.002;2024-02-04T00:27:05;99011.28;;;8.32;100.00
80976;BME280;70437;49.466;11.002;2024-02-04T00:29:34;99011.25;;;8.11;100.00
80976;BME280;70437;49.466;11.002;2024-02-04T00:32:03;99007.72;;;8.25;100.00
80976;BME280;70437;49.466;11.002;2024-02-04T00:34:34;99006.16;;;8.31;100.00
80976;BME280;70437;49.466;11.002;2024-02-04T00:37:04;98990.41;;;8.21;100.00
80976;BME280;70437;49.466;11.002;2024-02-04T00:39:34;98995.38;;;8.24;100.00
80976;BME280;70437;49.466;11.002;2024-02-04T00:42:04;98997.44;;;8.22;100.00
80976;BME280;70437;49.466;11.002;2024-02-04T00:44:33;99005.75;;;8.34;100.00
80976;BME280;70437;49.466;11.002;2024-02-04T00:47:03;99006.31;;;8.29;100.00
80976;BME280;70437;49.466;11.002;2024-02-04T00:49:34;99008.84;;;8.16;100.00
80976;BME280;70437;49.466;11.002;2024-02-04T00:52:03;99007.28;;;8.22;100.00
80976;BME280;70437;49.466;11.002;2024-02-04T00:54:32;99003.88;;;8.13;100.00
80976;BME280;70437;49.466;11.002;2024-02-04T00:57:01;99007.28;;;8.22;100.00
80976;BME280;70437;49.466;11.002;2024-02-04T00:59:30;99011.06;;;8.13;100.00
80976;BME280;70437;49.466;11.002;2024-02-04T01:01:59;99002.41;;;8.10;100.00
80976;BME280;70437;49.466;11.002;2024-02-04T01:04:29;98999.59;;;8.33;100.00
80976;BME280;70437;49.466;11.002;2024-02-04T01:07:02;98998.16;;;8.16;100.00
80976;BME280;70437;49.466;11.002;2024-02-04T01:09:32;98997.53;;;8.14;100.00
80976;BME280;70437;49.466;11.002;2024-02-04T01:12:01;99011.91;;;8.13;100.00
80976;BME280;70437;49.466;11.002;2024-02-04T01:14:30;99012.97;;;8.19;100.00
80976;BME280;70437;49.466;11.002;2024-02-04T01:16:59;99011.66;;;8.29;100.00
80976;BME280;70437;49.466;11.002;2024-02-04T01:19:30;99007.53;;;8.27;100.00
80976;BME280;70437;49.466;11.002;2024-02-04T01:21:59;99001.38;;;8.26;100.00
80976;BME280;70437;49.466;11.002;2024-02-04T01:24:30;99000.16;;;8.29;100.00
80976;BME280;70437;49.466;11.002;2024-02-04T01:26:59;99007.44;;;8.20;100.00
80976;BME280;70437;49.466;11.002;2024-02-04T01:29:28;98989.59;;;8.21;100.00
80976;BME280;70437;49.466;11.002;2024-02-04T01:31:58;98995.47;;;8.16;100.00
80976;BME280;70437;49.466;11.002;2024-02-04T01:34:33;98985.81;;;8.15;100.00
80976;BME280;70437;49.466;11.002;2024-02-04T01:37:02;98976.19;;;8.14;100.00
80976;BME280;70437;49.466;11.002;2024-02-04T01:39:33;98976.19;;;8.14;100.00
80976;BME280;70437;49.466;11.002;2024-02-04T01:42:03;98975.00;;;8.02;100.00
80976;BME280;70437;49.466;11.002;2024-02-04T01:44:32;98982.72;;;7.97;100.00
80976;BME280;70437;49.466;11.002;2024-02-04T01:47:01;98984.31;;;7.91;100.00
80976;BME280;70437;49.466;11.002;2024-02-04T01:49:31;98984.13;;;7.93;100.00
80976;BME280;70437;49.466;11.002;2024-02-04T01:52:00;98972.53;;;8.00;100.00
80976;BME280;70437;49.466;11.002;2024-02-04T01:54:32;98966.53;;;7.98;100.00
80976;BME280;70437;49.466;11.002;2024-02-04T01:57:03;98975.66;;;7.89;100.00
80976;BME280;70437;49.466;11.002;2024-02-04T01:59:33;98976.31;;;7.91;100.00
80976;BME280;70437;49.466;11.002;2024-02-04T02:02:02;98966.00;;;7.88;100.00
80976;BME280;70437;49.466;11.002;2024-02-04T02:04:33;98970.88;;;7.99;100.00
80976;BME280;70437;49.466;11.002;2024-02-04T02:07:02;98968.19;;;7.99;100.00
80976;BME280;70437;49.466;11.002;2024-02-04T02:09:38;98965.91;;;7.96;100.00
80976;BME280;70437;49.466;11.002;2024-02-04T02:12:09;98965.91;;;7.96;100.00
80976;BME280;70437;49.466;11.002;2024-02-04T02:14:44;98979.22;;;8.11;100.00
80976;BME280;70437;49.466;11.002;2024-02-04T02:17:16;98977.84;;;8.00;100.00
80976;BME280;70437;49.466;11.002;2024-02-04T02:19:54;98969.66;;;8.02;100.00
80976;BME280;70437;49.466;11.002;2024-02-04T02:22:32;98977.56;;;8.10;100.00
80976;BME280;70437;49.466;11.002;2024-02-04T02:25:07;98978.09;;;8.20;100.00
80976;BME280;70437;49.466;11.002;2024-02-04T02:27:46;98978.19;;;8.12;100.00
80976;BME280;70437;49.466;11.002;2024-02-04T02:30:17;98971.84;;;8.13;100.00
80976;BME280;70437;49.466;11.002;2024-02-04T02:32:48;98979.31;;;8.18;100.00
80976;BME280;70437;49.466;11.002;2024-02-04T02:35:19;98972.22;;;8.10;100.00
80976;BME280;70437;49.466;11.002;2024-02-04T02:37:55;98980.22;;;8.10;100.00
80976;BME280;70437;49.466;11.002;2024-02-04T02:40:32;98978.47;;;8.02;100.00
80976;BME280;70437;49.466;11.002;2024-02-04T02:43:03;98975.88;;;8.24;100.00
80976;BME280;70437;49.466;11.002;2024-02-04T02:45:34;98979.41;;;8.09;100.00
80976;BME280;70437;49.466;11.002;2024-02-04T02:48:06;98985.00;;;8.15;100.00
80976;BME280;70437;49.466;11.002;2024-02-04T02:50:37;98996.41;;;8.23;100.00
80976;BME280;70437;49.466;11.002;2024-02-04T02:53:07;98997.75;;;8.49;100.00
80976;BME280;70437;49.466;11.002;2024-02-04T02:55:38;98998.31;;;8.66;100.00
80976;BME280;70437;49.466;11.002;2024-02-04T02:58:10;99003.84;;;8.43;100.00
80976;BME280;70437;49.466;11.002;2024-02-04T03:00:40;99002.78;;;8.58;100.00
80976;BME280;70437;49.466;11.002;2024-02-04T03:03:09;98995.00;;;8.42;100.00
80976;BME280;70437;49.466;11.002;2024-02-04T03:05:41;98992.41;;;8.49;100.00
80976;BME280;70437;49.466;11.002;2024-02-04T03:08:10;98977.38;;;8.48;100.00
80976;BME280;70437;49.466;11.002;2024-02-04T03:10:42;98981.72;;;8.49;100.00
80976;BME280;70437;49.466;11.002;2024-02-04T03:13:11;98981.59;;;8.57;100.00
80976;BME280;70437;49.466;11.002;2024-02-04T03:15:40;98988.53;;;8.51;100.00
80976;BME280;70437;49.466;11.002;2024-02-04T03:18:10;98981.09;;;8.68;100.00
80976;BME280;70437;49.466;11.002;2024-02-04T03:20:39;98973.97;;;8.54;100.00
80976;BME280;70437;49.466;11.002;2024-02-04T03:23:08;98972.69;;;8.50;100.00
80976;BME280;70437;49.466;11.002;2024-02-04T03:25:38;98982.63;;;8.56;100.00
80976;BME280;70437;49.466;11.002;2024-02-04T03:28:09;98976.88;;;8.38;100.00
80976;BME280;70437;49.466;11.002;2024-02-04T03:30:38;98979.78;;;8.57;100.00
80976;BME280;70437;49.466;11.002;2024-02-04T03:33:07;98977.94;;;8.58;100.00
80976;BME280;70437;49.466;11.002;2024-02-04T03:35:38;98974.84;;;8.40;100.00
80976;BME280;70437;49.466;11.002;2024-02-04T03:38:08;98976.66;;;8.54;100.00
80976;BME280;70437;49.466;11.002;2024-02-04T03:40:37;98980.59;;;8.58;100.00
80976;BME280;70437;49.466;11.002;2024-02-04T03:43:11;98975.22;;;8.37;100.00
80976;BME280;70437;49.466;11.002;2024-02-04T03:45:41;98994.53;;;8.53;100.00
80976;BME280;70437;49.466;11.002;2024-02-04T03:48:10;98984.88;;;8.38;100.00
80976;BME280;70437;49.466;11.002;2024-02-04T03:50:39;98983.69;;;8.40;100.00
80976;BME280;70437;49.466;11.002;2024-02-04T03:53:08;98981.31;;;8.30;100.00
80976;BME280;70437;49.466;11.002;2024-02-04T03:55:37;98983.69;;;8.40;100.00
80976;BME280;70437;49.466;11.002;2024-02-04T03:58:06;98992.16;;;8.65;100.00
80976;BME280;70437;49.466;11.002;2024-02-04T04:00:38;98988.09;;;8.33;100.00
80976;BME280;70437;49.466;11.002;2024-02-04T04:03:07;98979.72;;;8.21;100.00
80976;BME280;70437;49.466;11.002;2024-02-04T04:05:36;98976.38;;;8.13;100.00
80976;BME280;70437;49.466;11.002;2024-02-04T04:08:06;98971.56;;;8.08;100.00
80976;BME280;70437;49.466;11.002;2024-02-04T04:10:35;98980.75;;;8.20;100.00
80976;BME280;70437;49.466;11.002;2024-02-04T04:13:04;98974.78;;;8.18;100.00
80976;BME280;70437;49.466;11.002;2024-02-04T04:15:40;98975.19;;;8.00;100.00
80976;BME280;70437;49.466;11.002;2024-02-04T04:18:10;98975.91;;;8.09;100.00
80976;BME280;70437;49.466;11.002;2024-02-04T04:20:40;98975.34;;;7.99;100.00
80976;BME280;70437;49.466;11.002;2024-02-04T04:23:12;98973.38;;;7.86;100.00
80976;BME280;70437;49.466;11.002;2024-02-04T04:25:42;98984.13;;;7.93;100.00
80976;BME280;70437;49.466;11.002;2024-02-04T04:28:11;98981.72;;;7.98;100.00
80976;BME280;70437;49.466;11.002;2024-02-04T04:30:42;98979.97;;;7.90;100.00
80976;BME280;70437;49.466;11.002;2024-02-04T04:33:11;98979.25;;;7.96;100.00
80976;BME280;70437;49.466;11.002;2024-02-04T04:35:42;98974.81;;;7.89;100.00
80976;BME280;70437;49.466;11.002;2024-02-04T04:38:11;98974.47;;;7.92;100.00
80976;BME280;70437;49.466;11.002;2024-02-04T04:40:40;98973.28;;;7.79;100.00
80976;BME280;70437;49.466;11.002;2024-02-04T04:43:09;98968.19;;;7.84;100.00
80976;BME280;70437;49.466;11.002;2024-02-04T04:45:38;98972.19;;;7.74;100.00
80976;BME280;70437;49.466;11.002;2024-02-04T04:48:07;98970.41;;;7.81;100.00
80976;BME280;70437;49.466;11.002;2024-02-04T04:50:37;98960.69;;;7.73;100.00
80976;BME280;70437;49.466;11.002;2024-02-04T04:53:06;98958.75;;;7.67;100.00
80976;BME280;70437;49.466;11.002;2024-02-04T04:55:36;98965.94;;;7.81;100.00
80976;BME280;70437;49.466;11.002;2024-02-04T04:58:06;98949.91;;;7.67;100.00
80976;BME280;70437;49.466;11.002;2024-02-04T05:00:35;98967.56;;;7.68;100.00
80976;BME280;70437;49.466;11.002;2024-02-04T05:03:04;98965.56;;;7.70;100.00
80976;BME280;70437;49.466;11.002;2024-02-04T05:05:34;98958.38;;;7.55;100.00
80976;BME280;70437;49.466;11.002;2024-02-04T05:08:05;98958.94;;;7.66;100.00
80976;BME280;70437;49.466;11.002;2024-02-04T05:10:34;98953.88;;;7.56;100.00
80976;BME280;70437;49.466;11.002;2024-02-04T05:13:04;98959.56;;;7.68;100.00
80976;BME280;70437;49.466;11.002;2024-02-04T05:15:34;98954.44;;;7.51;100.00
80976;BME280;70437;49.466;11.002;2024-02-04T05:18:04;98963.09;;;7.68;100.00
80976;BME280;70437;49.466;11.002;2024-02-04T05:20:35;98957.09;;;7.66;100.00
80976;BME280;70437;49.466;11.002;2024-02-04T05:23:04;98965.19;;;7.58;100.00
80976;BME280;70437;49.466;11.002;2024-02-04T05:25:34;98945.69;;;7.57;100.00
80976;BME280;70437;49.466;11.002;2024-02-04T05:28:04;98942.00;;;7.58;100.00
80976;BME280;70437;49.466;11.002;2024-02-04T05:30:33;98946.91;;;7.55;100.00
80976;BME280;70437;49.466;11.002;2024-02-04T05:33:03;98954.25;;;7.53;100.00
80976;BME280;70437;49.466;11.002;2024-02-04T05:35:35;98951.50;;;7.46;100.00
80976;BME280;70437;49.466;11.002;2024-02-04T05:38:07;98947.81;;;7.47;100.00
80976;BME280;70437;49.466;11.002;2024-02-04T05:40:36;98950.47;;;7.47;100.00
80976;BME280;70437;49.466;11.002;2024-02-04T05:43:05;98947.00;;;7.47;100.00
80976;BME280;70437;49.466;11.002;2024-02-04T05:45:40;98947.25;;;7.52;100.00
80976;BME280;70437;49.466;11.002;2024-02-04T05:48:09;98961.06;;;7.55;100.00
80976;BME280;70437;49.466;11.002;2024-02-04T05:50:40;98963.63;;;7.64;100.00
80976;BME280;70437;49.466;11.002;2024-02-04T05:53:09;98956.63;;;7.63;100.00
80976;BME280;70437;49.466;11.002;2024-02-04T05:55:41;98957.09;;;7.66;100.00
80976;BME280;70437;49.466;11.002;2024-02-04T05:58:11;98948.19;;;7.59;100.00
80976;BME280;70437;49.466;11.002;2024-02-04T06:00:41;98950.56;;;7.69;100.00
80976;BME280;70437;49.466;11.002;2024-02-04T06:03:10;98950.69;;;7.46;100.00
80976;BME280;70437;49.466;11.002;2024-02-04T06:05:41;98955.25;;;7.52;100.00
80976;BME280;70437;49.466;11.002;2024-02-04T06:08:10;98944.22;;;7.40;100.00
80976;BME280;70437;49.466;11.002;2024-02-04T06:10:39;98938.97;;;7.32;100.00
80976;BME280;70437;49.466;11.002;2024-02-04T06:13:11;98929.50;;;7.29;100.00
80976;BME280;70437;49.466;11.002;2024-02-04T06:15:41;98927.13;;;7.34;100.00
80976;BME280;70437;49.466;11.002;2024-02-04T06:18:13;98925.09;;;7.37;100.00
80976;BME280;70437;49.466;11.002;2024-02-04T06:20:44;98918.22;;;7.42;100.00
80976;BME280;70437;49.466;11.002;2024-02-04T06:23:13;98916.91;;;7.38;100.00
80976;BME280;70437;49.466;11.002;2024-02-04T06:25:42;98921.91;;;7.41;100.00
80976;BME280;70437;49.466;11.002;2024-02-04T06:28:12;98925.38;;;7.42;100.00
80976;BME280;70437;49.466;11.002;2024-02-04T06:30:41;98931.06;;;7.53;100.00
80976;BME280;70437;49.466;11.002;2024-02-04T06:33:09;98932.34;;;7.57;100.00
80976;BME280;70437;49.466;11.002;2024-02-04T06:35:41;98938.78;;;7.63;100.00
80976;BME280;70437;49.466;11.002;2024-02-04T06:38:15;98929.97;;;7.63;100.00
80976;BME280;70437;49.466;11.002;2024-02-04T06:40:44;98936.22;;;7.70;100.00
80976;BME280;70437;49.466;11.002;2024-02-04T06:43:13;98936.41;;;7.68;100.00
80976;BME280;70437;49.466;11.002;2024-02-04T06:45:43;98944.19;;;7.84;100.00
80976;BME280;70437;49.466;11.002;2024-02-04T06:48:12;98950.28;;;7.78;100.00
80976;BME280;70437;49.466;11.002;2024-02-04T06:50:43;98953.41;;;7.82;100.00
80976;BME280;70437;49.466;11.002;2024-02-04T06:53:15;98964.44;;;7.79;100.00
80976;BME280;70437;49.466;11.002;2024-02-04T06:55:44;98958.44;;;7.92;100.00
80976;BME280;70437;49.466;11.002;2024-02-04T06:58:13;98949.47;;;7.78;100.00
80976;BME280;70437;49.466;11.002;2024-02-04T07:00:41;98951.63;;;7.89;100.00
80976;BME280;70437;49.466;11.002;2024-02-04T07:03:11;98942.19;;;7.87;100.00
80976;BME280;70437;49.466;11.002;2024-02-04T07:05:40;98950.53;;;7.83;100.00
80976;BME280;70437;49.466;11.002;2024-02-04T07:08:16;98954.59;;;7.79;100.00
80976;BME280;70437;49.466;11.002;2024-02-04T07:10:45;98950.81;;;7.89;100.00
80976;BME280;70437;49.466;11.002;2024-02-04T07:13:15;98960.19;;;7.84;100.00
80976;BME280;70437;49.466;11.002;2024-02-04T07:15:44;98951.47;;;7.91;100.00
80976;BME280;70437;49.466;11.002;2024-02-04T07:18:14;98955.50;;;8.01;100.00
80976;BME280;70437;49.466;11.002;2024-02-04T07:20:44;98959.63;;;7.89;100.00
80976;BME280;70437;49.466;11.002;2024-02-04T07:23:18;98941.78;;;8.04;100.00
80976;BME280;70437;49.466;11.002;2024-02-04T07:26:17;98941.31;;;8.01;100.00
80976;BME280;70437;49.466;11.002;2024-02-04T07:29:15;98939.66;;;8.00;100.00
80976;BME280;70437;49.466;11.002;2024-02-04T07:31:56;98931.84;;;7.98;100.00
80976;BME280;70437;49.466;11.002;2024-02-04T07:34:32;98931.09;;;8.04;100.00
80976;BME280;70437;49.466;11.002;2024-02-04T07:37:02;98940.00;;;8.11;100.00
80976;BME280;70437;49.466;11.002;2024-02-04T07:39:47;98940.00;;;8.11;100.00
80976;BME280;70437;49.466;11.002;2024-02-04T07:42:24;98937.09;;;8.28;100.00
80976;BME280;70437;49.466;11.002;2024-02-04T07:44:54;98934.50;;;8.13;100.00
80976;BME280;70437;49.466;11.002;2024-02-04T07:47:28;98931.81;;;8.13;100.00
80976;BME280;70437;49.466;11.002;2024-02-04T07:50:21;98933.72;;;8.19;100.00
80976;BME280;70437;49.466;11.002;2024-02-04T07:53:05;98936.59;;;8.18;100.00
80976;BME280;70437;49.466;11.002;2024-02-04T07:55:39;98935.19;;;8.22;100.00
80976;BME280;70437;49.466;11.002;2024-02-04T07:58:10;98938.81;;;8.14;100.00
80976;BME280;70437;49.466;11.002;2024-02-04T08:00:40;98941.25;;;8.30;100.00
80976;BME280;70437;49.466;11.002;2024-02-04T08:03:09;98940.44;;;8.15;100.00
80976;BME280;70437;49.466;11.002;2024-02-04T08:05:41;98936.28;;;8.27;100.00
80976;BME280;70437;49.466;11.002;2024-02-04T08:08:11;98928.81;;;8.38;100.00
80976;BME280;70437;49.466;11.002;2024-02-04T08:10:45;98940.22;;;8.31;100.00
80976;BME280;70437;49.466;11.002;2024-02-04T08:13:16;98937.06;;;8.43;100.00
80976;BME280;70437;49.466;11.002;2024-02-04T08:15:55;98935.78;;;8.39;100.00
80976;BME280;70437;49.466;11.002;2024-02-04T08:18:29;98943.69;;;8.47;100.00
80976;BME280;70437;49.466;11.002;2024-02-04T08:21:17;98944.34;;;8.34;100.00
80976;BME280;70437;49.466;11.002;2024-02-04T08:23:46;98960.94;;;8.44;100.00
80976;BME280;70437;49.466;11.002;2024-02-04T08:26:20;98955.72;;;8.57;100.00
80976;BME280;70437;49.466;11.002;2024-02-04T08:28:51;98952.19;;;8.35;100.00
80976;BME280;70437;49.466;11.002;2024-02-04T08:31:22;98951.34;;;8.50;100.00
80976;BME280;70437;49.466;11.002;2024-02-04T08:33:53;98954.94;;;8.42;100.00
80976;BME280;70437;49.466;11.002;2024-02-04T08:36:24;98943.28;;;8.28;100.00
80976;BME280;70437;49.466;11.002;2024-02-04T08:38:58;98945.88;;;8.58;100.00
80976;BME280;70437;49.466;11.002;2024-02-04T08:41:30;98941.41;;;8.65;100.00
80976;BME280;70437;49.466;11.002;2024-02-04T08:44:06;98949.22;;;8.45;100.00
80976;BME280;70437;49.466;11.002;2024-02-04T08:47:10;98948.88;;;8.33;100.00
80976;BME280;70437;49.466;11.002;2024-02-04T08:49:43;98951.25;;;8.43;100.00
80976;BME280;70437;49.466;11.002;2024-02-04T08:52:16;98951.59;;;8.55;100.00
80976;BME280;70437;49.466;11.002;2024-02-04T08:54:49;98951.63;;;8.61;100.00
80976;BME280;70437;49.466;11.002;2024-02-04T08:57:35;98960.53;;;8.47;100.00
80976;BME280;70437;49.466;11.002;2024-02-04T09:00:05;98965.19;;;8.60;100.00
80976;BME280;70437;49.466;11.002;2024-02-04T09:02:37;98959.66;;;8.61;100.00
80976;BME280;70437;49.466;11.002;2024-02-04T09:05:10;98959.53;;;8.70;100.00
80976;BME280;70437;49.466;11.002;2024-02-04T09:07:42;98962.47;;;8.53;100.00
80976;BME280;70437;49.466;11.002;2024-02-04T09:10:18;98958.56;;;8.56;100.00
80976;BME280;70437;49.466;11.002;2024-02-04T09:12:51;98962.63;;;8.52;100.00
80976;BME280;70437;49.466;11.002;2024-02-04T09:15:25;98946.00;;;8.50;100.00
80976;BME280;70437;49.466;11.002;2024-02-04T09:18:00;98952.03;;;8.58;100.00
80976;BME280;70437;49.466;11.002;2024-02-04T09:20:29;98949.66;;;8.70;100.00
80976;BME280;70437;49.466;11.002;2024-02-04T09:22:58;98954.88;;;8.57;100.00
80976;BME280;70437;49.466;11.002;2024-02-04T09:25:46;98960.63;;;8.54;100.00
80976;BME280;70437;49.466;11.002;2024-02-04T09:28:35;98932.69;;;8.56;100.00
80976;BME280;70437;49.466;11.002;2024-02-04T09:31:07;98940.91;;;8.55;100.00
80976;BME280;70437;49.466;11.002;2024-02-04T09:33:38;98927.41;;;8.84;100.00
80976;BME280;70437;49.466;11.002;2024-02-04T09:36:08;98922.44;;;8.60;100.00
80976;BME280;70437;49.466;11.002;2024-02-04T09:38:41;98921.41;;;8.82;100.00
80976;BME280;70437;49.466;11.002;2024-02-04T09:41:11;98921.28;;;8.91;100.00
80976;BME280;70437;49.466;11.002;2024-02-04T09:43:44;98930.81;;;9.00;100.00
80976;BME280;70437;49.466;11.002;2024-02-04T09:46:14;98924.50;;;9.07;100.00
80976;BME280;70437;49.466;11.002;2024-02-04T09:48:44;98929.06;;;8.85;100.00
80976;BME280;70437;49.466;11.002;2024-02-04T09:51:28;98920.22;;;8.85;100.00
80976;BME280;70437;49.466;11.002;2024-02-04T09:54:05;98913.59;;;9.09;100.00
80976;BME280;70437;49.466;11.002;2024-02-04T09:57:04;98918.84;;;9.24;100.00
80976;BME280;70437;49.466;11.002;2024-02-04T09:59:41;98911.41;;;9.19;100.00
80976;BME280;70437;49.466;11.002;2024-02-04T10:02:11;98923.66;;;9.35;100.00
80976;BME280;70437;49.466;11.002;2024-02-04T10:04:48;98914.81;;;9.76;100.00
80976;BME280;70437;49.466;11.002;2024-02-04T10:07:18;98909.44;;;9.69;100.00
80976;BME280;70437;49.466;11.002;2024-02-04T10:09:47;98925.13;;;9.38;100.00
80976;BME280;70437;49.466;11.002;2024-02-04T10:12:21;98905.63;;;9.50;100.00
80976;BME280;70437;49.466;11.002;2024-02-04T10:14:53;98919.00;;;9.50;100.00
80976;BME280;70437;49.466;11.002;2024-02-04T10:17:23;98905.44;;;9.52;100.00
80976;BME280;70437;49.466;11.002;2024-02-04T10:19:57;98908.94;;;9.52;100.00
80976;BME280;70437;49.466;11.002;2024-02-04T10:22:30;98907.09;;;9.53;100.00
80976;BME280;70437;49.466;11.002;2024-02-04T10:25:37;98906.44;;;9.51;100.00
80976;BME280;70437;49.466;11.002;2024-02-04T10:28:06;98892.44;;;9.42;100.00
80976;BME280;70437;49.466;11.002;2024-02-04T10:30:39;98896.53;;;9.38;100.00
80976;BME280;70437;49.466;11.002;2024-02-04T10:33:12;98887.69;;;9.38;100.00
80976;BME280;70437;49.466;11.002;2024-02-04T10:35:44;98870.91;;;9.22;100.00
80976;BME280;70437;49.466;11.002;2024-02-04T10:38:15;98850.56;;;9.21;100.00
80976;BME280;70437;49.466;11.002;2024-02-04T10:41:07;98868.00;;;9.52;100.00
80976;BME280;70437;49.466;11.002;2024-02-04T10:43:37;98865.31;;;9.52;100.00
80976;BME280;70437;49.466;11.002;2024-02-04T10:46:27;98864.13;;;9.68;100.00
80976;BME280;70437;49.466;11.002;2024-02-04T10:49:03;98863.69;;;9.64;100.00
80976;BME280;70437;49.466;11.002;2024-02-04T10:54:40;98866.41;;;9.71;100.00
80976;BME280;70437;49.466;11.002;2024-02-04T10:57:23;98863.66;;;9.51;100.00
80976;BME280;70437;49.466;11.002;2024-02-04T10:59:56;98870.69;;;9.58;100.00
80976;BME280;70437;49.466;11.002;2024-02-04T11:02:34;98869.88;;;9.58;100.00
80976;BME280;70437;49.466;11.002;2024-02-04T11:05:20;98872.75;;;9.63;100.00
80976;BME280;70437;49.466;11.002;2024-02-04T11:07:53;98864.72;;;9.63;100.00
80976;BME280;70437;49.466;11.002;2024-02-04T11:10:50;98860.09;;;9.37;100.00
80976;BME280;70437;49.466;11.002;2024-02-04T11:13:31;98863.69;;;9.64;100.00
80976;BME280;70437;49.466;11.002;2024-02-04T11:16:33;98846.16;;;9.55;100.00
80976;BME280;70437;49.466;11.002;2024-02-04T11:19:31;98852.44;;;9.75;100.00
80976;BME280;70437;49.466;11.002;2024-02-04T11:22:39;98846.97;;;9.49;100.00
80976;BME280;70437;49.466;11.002;2024-02-04T11:25:36;98839.56;;;9.51;100.00
80976;BME280;70437;49.466;11.002;2024-02-04T11:28:23;98828.25;;;9.49;100.00
80976;BME280;70437;49.466;11.002;2024-02-04T11:31:19;98831.09;;;9.41;100.00
80976;BME280;70437;49.466;11.002;2024-02-04T11:33:56;98846.50;;;9.86;100.00
80976;BME280;70437;49.466;11.002;2024-02-04T11:36:28;98813.03;;;9.49;100.00
80976;BME280;70437;49.466;11.002;2024-02-04T11:39:18;98833.06;;;9.60;100.00
80976;BME280;70437;49.466;11.002;2024-02-04T11:41:50;98823.94;;;9.54;100.00
80976;BME280;70437;49.466;11.002;2024-02-04T11:44:21;98806.66;;;9.50;100.00
80976;BME280;70437;49.466;11.002;2024-02-04T11:46:51;98817.34;;;9.50;100.00
80976;BME280;70437;49.466;11.002;2024-02-04T11:49:27;98813.53;;;9.79;100.00
80976;BME280;70437;49.466;11.002;2024-02-04T11:51:59;98802.38;;;9.56;100.00
80976;BME280;70437;49.466;11.002;2024-02-04T11:54:30;98827.16;;;9.84;100.00
80976;BME280;70437;49.466;11.002;2024-02-04T11:57:00;98806.00;;;10.16;100.00
80976;BME280;70437;49.466;11.002;2024-02-04T11:59:37;98810.69;;;9.94;100.00
80976;BME280;70437;49.466;11.002;2024-02-04T12:02:07;98811.72;;;9.93;100.00
80976;BME280;70437;49.466;11.002;2024-02-04T12:04:36;98828.59;;;9.87;100.00
80976;BME280;70437;49.466;11.002;2024-02-04T12:07:10;98816.47;;;9.91;100.00
80976;BME280;70437;49.466;11.002;2024-02-04T12:09:43;98799.38;;;9.99;100.00
80976;BME280;70437;49.466;11.002;2024-02-04T12:12:15;98794.00;;;9.85;100.00
80976;BME280;70437;49.466;11.002;2024-02-04T12:14:45;98810.50;;;9.96;100.00
80976;BME280;70437;49.466;11.002;2024-02-04T12:17:18;98820.56;;;9.87;100.00
80976;BME280;70437;49.466;11.002;2024-02-04T12:19:48;98798.28;;;9.60;100.00
80976;BME280;70437;49.466;11.002;2024-02-04T12:22:21;98808.81;;;9.81;100.00
80976;BME280;70437;49.466;11.002;2024-02-04T12:24:50;98794.53;;;9.54;100.00
80976;BME280;70437;49.466;11.002;2024-02-04T12:27:24;98786.31;;;9.56;100.00
80976;BME280;70437;49.466;11.002;2024-02-04T12:29:54;98798.31;;;9.80;100.00
80976;BME280;70437;49.466;11.002;2024-02-04T12:32:24;98801.84;;;9.87;100.00
80976;BME280;70437;49.466;11.002;2024-02-04T12:34:53;98809.25;;;9.98;100.00
80976;BME280;70437;49.466;11.002;2024-02-04T12:37:26;98814.38;;;9.80;100.00
80976;BME280;70437;49.466;11.002;2024-02-04T12:39:59;98803.41;;;9.61;100.00
80976;BME280;70437;49.466;11.002;2024-02-04T12:42:32;98815.63;;;9.84;100.00
80976;BME280;70437;49.466;11.002;2024-02-04T12:45:05;98811.13;;;10.04;100.00
80976;BME280;70437;49.466;11.002;2024-02-04T12:47:34;98810.50;;;10.02;100.00
80976;BME280;70437;49.466;11.002;2024-02-04T12:50:06;98801.63;;;9.88;100.00
80976;BME280;70437;49.466;11.002;2024-02-04T12:52:43;98796.03;;;9.77;100.00
80976;BME280;70437;49.466;11.002;2024-02-04T12:55:22;98797.28;;;9.81;100.00
80976;BME280;70437;49.466;11.002;2024-02-04T12:58:03;98803.03;;;9.65;100.00
80976;BME280;70437;49.466;11.002;2024-02-04T13:00:35;98798.75;;;9.83;100.00
80976;BME280;70437;49.466;11.002;2024-02-04T13:03:06;98799.16;;;9.87;100.00
80976;BME280;70437;49.466;11.002;2024-02-04T13:05:39;98799.94;;;9.74;100.00
80976;BME280;70437;49.466;11.002;2024-02-04T13:08:10;98789.22;;;9.61;100.00
80976;BME280;70437;49.466;11.002;2024-02-04T13:10:39;98780.00;;;9.83;100.00
80976;BME280;70437;49.466;11.002;2024-02-04T13:13:12;98781.44;;;9.79;100.00
80976;BME280;70437;49.466;11.002;2024-02-04T13:15:43;98767.88;;;9.94;100.00
80976;BME280;70437;49.466;11.002;2024-02-04T13:18:14;98767.47;;;10.10;100.00
80976;BME280;70437;49.466;11.002;2024-02-04T13:20:44;98761.28;;;9.97;100.00
80976;BME280;70437;49.466;11.002;2024-02-04T13:23:15;98752.84;;;10.06;100.00